ΕΜΥ, Εθνική Μετεωρολογική Υπηρεσία - Δελτία Καιρού, Προγνώσεις

ΑΕΡΟΝΑΥΤΙΛΙΑ

GREEK AIRPORTS CODES

TAF LGTT 231000Z 2312/2321 04015G25KT 9999 SCT015 BKN020 TEMPO 2312/2321 5000 RA PROB40 TEMPO 2315/2321 5000 SNRA=

EUROPEAN AIRPORTS CODES

LFPO 232330Z 07006KT CAVOK 08/M02 Q1033 NOSIG=